Time;durP1;ratioP1;P1;durP2;ratioP2;P2;SDS_P1;SDS_P2;PMS_P1;PMS_P2;Temp;Humidity;BMP_temperature;BMP_pressure;BME280_temperature;BME280_humidity;BME280_pressure;Samples;Min_cycle;Max_cycle;Signal;HPM_P1;HPM_P2
2021/12/13 00:01:21;;;;;;;17.85;9.73;;;;;;;;;;5011920;28;20019;-62
2021/12/13 00:03:57;;;;;;;17.85;9.23;;;;;;;;;;5009381;28;20022;-66
2021/12/13 00:06:26;;;;;;;16.08;8.45;;;;;;;;;;5009463;28;20503;-62
2021/12/13 00:08:54;;;;;;;18.17;8.68;;;;;;;;;;5009799;28;20026;-62
2021/12/13 00:11:22;;;;;;;18.30;8.70;;;;;;;;;;5019388;28;20029;-64
2021/12/13 00:13:50;;;;;;;15.68;8.18;;;;;;;;;;5028738;28;20105;-63
2021/12/13 00:16:23;;;;;;;13.95;7.88;;;;;;;;;;5013917;28;20464;-63
2021/12/13 00:18:54;;;;;;;16.60;8.90;;;;;;;;;;5009018;28;20026;-64
2021/12/13 00:21:23;;;;;;;;;;;;;;;;;;5010593;28;20022;-65
2021/12/13 00:23:54;;;;;;;25.13;11.55;;;;;;;;;;5010277;28;19910;-63
2021/12/13 00:26:22;;;;;;;18.92;10.30;;;;;;;;;;5009881;28;20018;-64
2021/12/13 00:28:49;;;;;;;17.92;9.40;;;;;;;;;;5009096;28;20524;-64
2021/12/13 00:31:25;;;;;;;19.88;9.43;;;;;;;;;;5009303;28;20054;-65
2021/12/13 00:33:51;;;;;;;17.35;7.97;;;;;;;;;;5009526;28;20161;-63
2021/12/13 00:36:25;;;;;;;11.30;5.78;;;;;;;;;;5009299;28;20125;-66
2021/12/13 00:38:55;;;;;;;9.70;5.85;;;;;;;;;;5010148;28;20025;-63
2021/12/13 00:41:23;;;;;;;12.07;6.10;;;;;;;;;;5010183;28;20018;-62
2021/12/13 00:43:57;;;;;;;10.60;5.70;;;;;;;;;;5009855;28;20029;-62
2021/12/13 00:46:24;;;;;;;11.70;6.22;;;;;;;;;;5012146;28;20045;-63
2021/12/13 00:48:53;;;;;;;12.43;6.20;;;;;;;;;;5018445;28;20029;-63
2021/12/13 00:51:25;;;;;;;9.68;5.78;;;;;;;;;;5016652;28;20080;-66
2021/12/13 00:53:52;;;;;;;10.90;5.80;;;;;;;;;;5016357;28;20427;-63
2021/12/13 00:56:37;;;;;;;11.68;6.28;;;;;;;;;;5016325;28;20034;-63
2021/12/13 00:59:06;;;;;;;10.70;5.68;;;;;;;;;;5016179;28;20049;-63
2021/12/13 01:01:33;;;;;;;10.60;5.72;;;;;;;;;;5015924;28;20026;-63
2021/12/13 01:04:02;;;;;;;14.55;6.95;;;;;;;;;;5016033;28;20412;-64
2021/12/13 01:06:36;;;;;;;12.02;6.47;;;;;;;;;;4998866;28;20392;-65
2021/12/13 01:09:21;;;;;;;18.58;8.65;;;;;;;;;;5015908;28;20014;-65
2021/12/13 01:11:58;;;;;;;31.45;13.23;;;;;;;;;;5016203;28;20041;-64
2021/12/13 01:14:37;;;;;;;25.77;11.05;;;;;;;;;;5015934;28;20018;-65
2021/12/13 01:17:24;;;;;;;;;;;;;;;;;;;;;
2021/12/13 01:19:57;;;;;;;14.50;7.63;;;;;;;;;;5016095;28;20029;-65
2021/12/13 01:22:41;;;;;;;16.20;8.50;;;;;;;;;;5016025;28;20026;-65
2021/12/13 01:27:43;;;;;;;16.85;6.88;;;;;;;;;;5015974;28;20026;-62
2021/12/13 01:30:21;;;;;;;12.68;7.22;;;;;;;;;;5015306;28;20486;-63
2021/12/13 01:32:50;;;;;;;13.80;7.30;;;;;;;;;;5015540;28;20018;-62
2021/12/13 01:35:19;;;;;;;14.77;7.35;;;;;;;;;;4997931;28;20395;-64
2021/12/13 01:37:51;;;;;;;10.93;5.70;;;;;;;;;;5015117;28;20057;-63
2021/12/13 01:40:18;;;;;;;13.30;6.05;;;;;;;;;;5015852;28;20022;-62
2021/12/13 01:42:44;;;;;;;10.82;6.03;;;;;;;;;;5015871;28;20044;-62
2021/12/13 01:45:14;;;;;;;12.02;5.75;;;;;;;;;;4997495;28;20380;-62
2021/12/13 01:47:42;;;;;;;13.43;6.28;;;;;;;;;;5014970;28;20048;-63
2021/12/13 01:50:08;;;;;;;9.05;5.50;;;;;;;;;;5015597;28;20026;-63
2021/12/13 01:52:36;;;;;;;11.65;6.45;;;;;;;;;;5015081;28;20025;-63
2021/12/13 01:55:05;;;;;;;13.02;5.97;;;;;;;;;;5015715;28;20017;-63
2021/12/13 01:58:19;;;;;;;12.50;5.75;;;;;;;;;;5014858;28;20494;-63
2021/12/13 02:01:08;;;;;;;9.48;5.78;;;;;;;;;;5010824;28;20092;-63
2021/12/13 02:03:20;;;;;;;15.77;7.88;;;;;;;;;;5014788;28;20030;-64
2021/12/13 02:05:47;;;;;;;12.73;6.85;;;;;;;;;;5014539;28;20071;-62
2021/12/13 02:08:15;;;;;;;11.98;6.60;;;;;;;;;;5015149;28;20026;-63
2021/12/13 02:10:41;;;;;;;11.65;5.93;;;;;;;;;;5015048;28;20018;-63
2021/12/13 02:13:16;;;;;;;9.48;5.68;;;;;;;;;;5014753;28;20025;-63
2021/12/13 02:18:30;;;;;;;13.48;6.72;;;;;;;;;;5014742;28;20502;-64
2021/12/13 02:21:04;;;;;;;12.10;7.35;;;;;;;;;;5014560;28;20030;-63
2021/12/13 02:23:31;;;;;;;12.02;6.32;;;;;;;;;;5014868;28;20235;-64
2021/12/13 02:25:57;;;;;;;12.23;6.43;;;;;;;;;;5014218;28;20519;-65
2021/12/13 02:28:25;;;;;;;12.65;6.95;;;;;;;;;;5014411;28;20067;-62
2021/12/13 02:30:54;;;;;;;8.80;5.28;;;;;;;;;;5014413;28;20436;-63
2021/12/13 02:33:25;;;;;;;11.75;6.07;;;;;;;;;;5013900;28;20388;-62
2021/12/13 02:35:53;;;;;;;14.70;7.00;;;;;;;;;;5014291;28;20087;-62
2021/12/13 02:38:20;;;;;;;11.45;6.22;;;;;;;;;;5014213;28;20465;-63
2021/12/13 02:40:46;;;;;;;14.20;6.75;;;;;;;;;;5014205;28;20034;-64
2021/12/13 02:43:13;;;;;;;15.90;6.90;;;;;;;;;;5014857;28;20026;-61
2021/12/13 02:45:43;;;;;;;13.75;6.22;;;;;;;;;;5014386;28;20095;-64
2021/12/13 02:48:18;;;;;;;12.82;6.13;;;;;;;;;;5014252;28;20088;-64
2021/12/13 02:50:47;;;;;;;14.70;6.47;;;;;;;;;;5014478;28;20120;-62
2021/12/13 02:53:15;;;;;;;13.50;7.25;;;;;;;;;;5014082;28;20045;-63
2021/12/13 02:55:41;;;;;;;12.07;6.95;;;;;;;;;;4996414;28;20388;-62
2021/12/13 02:58:10;;;;;;;13.38;6.53;;;;;;;;;;5013932;28;20030;-64
2021/12/13 03:00:45;;;;;;;15.68;7.90;;;;;;;;;;5013879;28;20029;-62
2021/12/13 03:03:14;;;;;;;13.57;6.35;;;;;;;;;;5013899;28;20376;-63
2021/12/13 03:05:43;;;;;;;13.52;6.20;;;;;;;;;;5014141;28;20105;-62
2021/12/13 03:08:18;;;;;;;11.57;6.10;;;;;;;;;;5013571;28;20076;-64
2021/12/13 03:10:48;;;;;;;14.23;6.53;;;;;;;;;;5013891;28;20105;-62
2021/12/13 03:13:15;;;;;;;11.65;6.03;;;;;;;;;;5014004;28;20049;-63
2021/12/13 03:15:44;;;;;;;12.32;5.78;;;;;;;;;;5013578;28;20022;-63
2021/12/13 03:18:12;;;;;;;9.25;5.00;;;;;;;;;;5013827;28;20025;-63
2021/12/13 03:20:50;;;;;;;11.57;4.90;;;;;;;;;;5013916;28;20018;-63
2021/12/13 03:23:20;;;;;;;7.20;3.75;;;;;;;;;;5013382;28;20032;-62
2021/12/13 03:25:46;;;;;;;5.38;3.65;;;;;;;;;;5014090;28;20048;-62
2021/12/13 03:28:31;;;;;;;9.25;3.45;;;;;;;;;;5014087;28;20044;-62
2021/12/13 03:30:59;;;;;;;7.28;3.28;;;;;;;;;;5013470;28;20022;-64
2021/12/13 03:33:32;;;;;;;5.20;2.85;;;;;;;;;;4996056;28;20032;-63
2021/12/13 03:36:00;;;;;;;4.57;2.03;;;;;;;;;;5013249;28;20038;-62
2021/12/13 03:38:34;;;;;;;6.38;2.78;;;;;;;;;;5013707;28;20033;-63
2021/12/13 03:41:01;;;;;;;4.38;2.63;;;;;;;;;;5013510;28;20056;-64
2021/12/13 03:43:50;;;;;;;8.27;3.60;;;;;;;;;;5013694;28;20403;-62
2021/12/13 03:46:19;;;;;;;3.80;2.70;;;;;;;;;;5000554;28;20400;-62
2021/12/13 03:48:45;;;;;;;7.35;3.10;;;;;;;;;;5013746;28;20371;-63
2021/12/13 03:51:17;;;;;;;3.92;2.63;;;;;;;;;;5013149;28;20026;-63
2021/12/13 03:53:45;;;;;;;4.43;2.92;;;;;;;;;;5013782;28;20018;-64
2021/12/13 03:56:17;;;;;;;5.13;2.67;;;;;;;;;;5013684;28;20030;-62
2021/12/13 03:58:46;;;;;;;6.63;3.95;;;;;;;;;;5013282;28;20055;-62
2021/12/13 04:01:14;;;;;;;5.07;2.95;;;;;;;;;;5013436;28;20030;-65
2021/12/13 04:03:41;;;;;;;6.10;3.40;;;;;;;;;;5013098;28;20030;-64
2021/12/13 04:06:08;;;;;;;7.25;3.42;;;;;;;;;;5013421;28;20100;-63
2021/12/13 04:08:34;;;;;;;6.03;3.78;;;;;;;;;;5013721;28;20026;-63
2021/12/13 04:11:03;;;;;;;5.38;3.63;;;;;;;;;;5013368;28;20018;-63
2021/12/13 04:13:32;;;;;;;5.43;3.85;;;;;;;;;;5013252;28;20018;-63
2021/12/13 04:16:14;;;;;;;8.70;4.13;;;;;;;;;;5013068;28;20030;-64
2021/12/13 04:21:20;;;;;;;5.72;3.55;;;;;;;;;;5013250;28;20061;-62
2021/12/13 04:23:54;;;;;;;5.95;3.17;;;;;;;;;;5015683;28;20044;-62
2021/12/13 04:26:21;;;;;;;4.55;2.95;;;;;;;;;;5016754;28;20104;-63
2021/12/13 04:28:50;;;;;;;6.50;3.33;;;;;;;;;;4999301;28;20021;-64
2021/12/13 04:31:21;;;;;;;7.20;3.50;;;;;;;;;;5016945;28;20024;-63
2021/12/13 04:33:48;;;;;;;7.18;4.03;;;;;;;;;;5016635;28;20420;-62
2021/12/13 04:36:17;;;;;;;6.55;3.70;;;;;;;;;;5016547;28;20026;-65
2021/12/13 04:38:49;;;;;;;6.20;3.60;;;;;;;;;;5016333;28;20026;-62
2021/12/13 04:41:35;;;;;;;6.38;3.38;;;;;;;;;;5016254;28;20029;-64
2021/12/13 04:44:04;;;;;;;6.82;3.35;;;;;;;;;;5016742;28;20079;-62
2021/12/13 04:46:31;;;;;;;7.28;3.33;;;;;;;;;;5015975;28;20045;-62
2021/12/13 04:48:59;;;;;;;5.70;3.22;;;;;;;;;;5016552;28;20044;-63
2021/12/13 04:51:27;;;;;;;6.20;3.45;;;;;;;;;;5016474;28;20015;-64
2021/12/13 04:53:57;;;;;;;4.28;2.70;;;;;;;;;;5016559;28;20021;-65
2021/12/13 04:56:25;;;;;;;8.20;3.95;;;;;;;;;;5016035;28;20522;-64
2021/12/13 04:58:53;;;;;;;7.05;3.90;;;;;;;;;;5016473;28;20029;-62
2021/12/13 05:01:21;;;;;;;5.28;3.28;;;;;;;;;;5015586;28;20354;-63
2021/12/13 05:03:58;;;;;;;6.07;3.42;;;;;;;;;;5016379;28;20030;-63
2021/12/13 05:06:28;;;;;;;7.47;4.25;;;;;;;;;;5016361;28;20025;-62
2021/12/13 05:08:58;;;;;;;8.65;4.05;;;;;;;;;;5016255;28;20105;-63
2021/12/13 05:11:24;;;;;;;7.13;4.03;;;;;;;;;;5015966;28;20376;-63
2021/12/13 05:13:52;;;;;;;6.78;3.63;;;;;;;;;;5015885;28;20083;-64
2021/12/13 05:16:26;;;;;;;9.70;4.20;;;;;;;;;;5016081;28;20030;-64
2021/12/13 05:18:54;;;;;;;10.02;4.88;;;;;;;;;;5016115;28;20018;-65
2021/12/13 05:21:25;;;;;;;11.23;5.07;;;;;;;;;;5015632;28;20030;-65
2021/12/13 05:23:57;;;;;;;12.05;5.35;;;;;;;;;;5015998;28;20037;-62
2021/12/13 05:26:32;;;;;;;6.95;4.45;;;;;;;;;;5019419;28;20025;-63
2021/12/13 05:29:00;;;;;;;6.63;4.43;;;;;;;;;;5034450;28;20021;-62
2021/12/13 05:31:27;;;;;;;9.60;4.93;;;;;;;;;;5035413;28;20026;-66
2021/12/13 05:33:56;;;;;;;7.10;4.35;;;;;;;;;;5001434;28;20099;-63
2021/12/13 05:36:24;;;;;;;7.70;3.88;;;;;;;;;;5035029;28;20033;-63
2021/12/13 05:38:52;;;;;;;12.32;4.85;;;;;;;;;;5017006;28;20030;-62
2021/12/13 05:41:22;;;;;;;11.90;4.65;;;;;;;;;;5014181;28;20022;-63
2021/12/13 05:43:53;;;;;;;11.43;5.13;;;;;;;;;;4996506;28;20025;-62
2021/12/13 05:46:23;;;;;;;8.43;4.57;;;;;;;;;;5021990;28;20030;-64
2021/12/13 05:49:00;;;;;;;8.38;4.97;;;;;;;;;;5015083;28;20036;-64
2021/12/13 05:51:34;;;;;;;8.10;4.13;;;;;;;;;;5015550;28;20057;-63
2021/12/13 05:54:01;;;;;;;8.30;4.28;;;;;;;;;;5015598;28;20509;-63
2021/12/13 05:56:29;;;;;;;8.02;4.90;;;;;;;;;;5014691;28;20034;-61
2021/12/13 05:58:57;;;;;;;8.40;5.15;;;;;;;;;;5015000;28;20483;-63
2021/12/13 06:01:44;;;;;;;9.13;4.93;;;;;;;;;;5015075;28;20118;-66
2021/12/13 06:04:10;;;;;;;6.57;3.85;;;;;;;;;;5014060;28;20052;-63
2021/12/13 06:06:47;;;;;;;10.02;4.30;;;;;;;;;;5014753;28;20116;-63
2021/12/13 06:09:33;;;;;;;6.18;3.70;;;;;;;;;;5014790;28;20480;-64
2021/12/13 06:12:05;;;;;;;7.53;4.28;;;;;;;;;;5014915;28;20022;-62
2021/12/13 06:14:32;;;;;;;15.35;6.25;;;;;;;;;;5015301;28;20153;-63
2021/12/13 06:17:11;;;;;;;8.60;4.25;;;;;;;;;;5014360;28;20037;-63
2021/12/13 06:19:49;;;;;;;16.70;7.93;;;;;;;;;;5014937;28;20400;-63
2021/12/13 06:22:26;;;;;;;9.63;5.50;;;;;;;;;;5015011;28;20461;-61
2021/12/13 06:24:52;;;;;;;11.02;5.85;;;;;;;;;;5014207;28;20037;-63
2021/12/13 06:27:23;;;;;;;72.28;27.38;;;;;;;;;;5014812;28;20049;-64
2021/12/13 06:29:51;;;;;;;29.08;11.10;;;;;;;;;;5015210;28;20034;-63
2021/12/13 06:32:21;;;;;;;13.60;6.72;;;;;;;;;;5014399;28;20469;-64
2021/12/13 06:34:48;;;;;;;19.87;9.57;;;;;;;;;;5014504;28;20499;-65
2021/12/13 06:37:14;;;;;;;20.15;8.40;;;;;;;;;;5014508;28;20415;-64
2021/12/13 06:39:40;;;;;;;24.52;9.60;;;;;;;;;;5014007;28;20072;-63
2021/12/13 06:42:07;;;;;;;20.35;7.80;;;;;;;;;;5014884;28;20083;-63
2021/12/13 06:44:38;;;;;;;24.13;9.65;;;;;;;;;;5014444;28;20046;-63
2021/12/13 06:47:06;;;;;;;19.63;7.85;;;;;;;;;;5013605;28;20041;-62
2021/12/13 06:49:38;;;;;;;15.13;7.03;;;;;;;;;;5014421;28;20444;-63
2021/12/13 06:52:04;;;;;;;;;;;;;;;;;;5014442;28;20018;-62
2021/12/13 06:54:33;;;;;;;18.50;7.63;;;;;;;;;;5014023;28;19997;-63
2021/12/13 06:57:17;;;;;;;21.30;8.65;;;;;;;;;;5012758;28;20036;-64
2021/12/13 07:00:01;;;;;;;10.35;6.25;;;;;;;;;;5013492;28;20490;-62
2021/12/13 07:02:36;;;;;;;16.25;7.22;;;;;;;;;;5014187;28;20037;-65
2021/12/13 07:05:41;;;;;;;29.30;13.43;;;;;;;;;;5014234;28;20025;-64
2021/12/13 07:08:12;;;;;;;15.13;7.20;;;;;;;;;;4913474;29;20028;-65
2021/12/13 07:10:44;;;;;;;17.55;9.05;;;;;;;;;;4914956;29;20028;-63
2021/12/13 07:13:10;;;;;;;;;;;;;;;;;;4968108;28;20044;-63
2021/12/13 07:15:42;;;;;;;15.85;8.27;;;;;;;;;;5013304;28;19910;-64
2021/12/13 07:18:11;;;;;;;14.82;7.68;;;;;;;;;;5013186;28;20129;-65
2021/12/13 07:20:39;;;;;;;13.02;7.68;;;;;;;;;;5012966;28;20068;-62
2021/12/13 07:23:05;;;;;;;10.38;7.07;;;;;;;;;;5013265;28;20025;-63
2021/12/13 07:25:36;;;;;;;11.02;5.53;;;;;;;;;;5013686;28;20487;-63
2021/12/13 07:28:03;;;;;;;11.88;5.18;;;;;;;;;;5013986;28;20065;-64
2021/12/13 07:30:31;;;;;;;7.40;4.85;;;;;;;;;;5014389;28;20370;-63
2021/12/13 07:33:03;;;;;;;8.50;4.72;;;;;;;;;;5013799;28;20022;-63
2021/12/13 07:35:40;;;;;;;6.82;4.70;;;;;;;;;;5013601;28;20025;-62
2021/12/13 07:38:08;;;;;;;9.85;4.82;;;;;;;;;;5013810;28;20084;-62
2021/12/13 07:40:37;;;;;;;10.75;5.75;;;;;;;;;;5013490;28;20026;-64
2021/12/13 07:43:15;;;;;;;11.27;6.55;;;;;;;;;;5013891;28;20069;-64
2021/12/13 07:46:02;;;;;;;14.85;7.15;;;;;;;;;;5013721;28;20076;-63
2021/12/13 07:48:35;;;;;;;11.93;7.05;;;;;;;;;;5013498;28;20046;-63
2021/12/13 07:51:19;;;;;;;15.40;8.40;;;;;;;;;;4995802;28;20033;-66
2021/12/13 07:53:48;;;;;;;15.63;8.35;;;;;;;;;;5013765;28;20022;-63
2021/12/13 07:56:26;;;;;;;16.42;8.32;;;;;;;;;;5013328;28;20164;-66
2021/12/13 07:58:58;;;;;;;18.10;8.10;;;;;;;;;;5016137;28;20022;-63
2021/12/13 08:01:26;;;;;;;17.55;8.77;;;;;;;;;;5017622;28;20060;-65
2021/12/13 08:03:57;;;;;;;16.60;9.13;;;;;;;;;;5017088;28;20044;-65
2021/12/13 08:06:23;;;;;;;;;;;;;;;;;;5017763;28;20026;-65
2021/12/13 08:08:53;;;;;;;20.75;11.93;;;;;;;;;;5017228;28;19992;-63
2021/12/13 08:11:32;;;;;;;26.95;12.23;;;;;;;;;;5017710;28;20026;-61
2021/12/13 08:13:59;;;;;;;27.40;13.73;;;;;;;;;;5017519;28;20554;-63
2021/12/13 08:16:29;;;;;;;29.13;13.57;;;;;;;;;;5016943;28;20030;-63
2021/12/13 08:19:04;;;;;;;27.50;15.73;;;;;;;;;;5017386;28;20021;-63
2021/12/13 08:21:30;;;;;;;27.50;15.70;;;;;;;;;;5016950;28;20384;-63
2021/12/13 08:23:58;;;;;;;31.55;14.75;;;;;;;;;;5016543;28;20030;-63
2021/12/13 08:26:28;;;;;;;33.90;18.33;;;;;;;;;;5017096;28;20025;-64
2021/12/13 08:28:55;;;;;;;31.38;16.40;;;;;;;;;;5016728;28;20460;-63
2021/12/13 08:31:26;;;;;;;25.63;15.77;;;;;;;;;;5016690;28;20026;-62
2021/12/13 08:33:57;;;;;;;32.90;15.27;;;;;;;;;;5016202;28;20018;-65
2021/12/13 08:36:38;;;;;;;28.98;15.07;;;;;;;;;;5016116;28;20472;-62
2021/12/13 08:39:07;;;;;;;25.77;13.90;;;;;;;;;;5016768;28;20056;-64
2021/12/13 08:41:44;;;;;;;27.65;14.48;;;;;;;;;;5016877;28;20255;-63
2021/12/13 08:44:10;;;;;;;26.27;13.35;;;;;;;;;;4999562;28;20040;-66
2021/12/13 08:47:03;;;;;;;28.42;14.13;;;;;;;;;;5016560;28;20038;-63
2021/12/13 08:49:41;;;;;;;25.40;11.85;;;;;;;;;;5012364;28;20065;-63
2021/12/13 08:52:17;;;;;;;25.80;12.32;;;;;;;;;;5016549;28;20026;-62
2021/12/13 08:54:51;;;;;;;19.05;11.38;;;;;;;;;;5016591;28;20117;-64
2021/12/13 08:57:35;;;;;;;21.23;10.45;;;;;;;;;;5016242;28;20061;-63
2021/12/13 09:00:07;;;;;;;20.38;10.93;;;;;;;;;;5016273;28;20024;-63
2021/12/13 09:02:38;;;;;;;20.88;11.45;;;;;;;;;;5016529;28;20018;-63
2021/12/13 09:05:07;;;;;;;19.27;10.30;;;;;;;;;;5015939;28;20024;-63
2021/12/13 09:07:34;;;;;;;17.48;10.80;;;;;;;;;;5016365;28;20037;-64
2021/12/13 09:10:01;;;;;;;17.38;11.30;;;;;;;;;;5015889;28;20080;-64
2021/12/13 09:12:36;;;;;;;28.13;13.52;;;;;;;;;;5015731;28;20018;-64
2021/12/13 09:15:07;;;;;;;24.15;12.82;;;;;;;;;;5015945;28;20408;-64
2021/12/13 09:17:38;;;;;;;28.10;13.73;;;;;;;;;;5015905;28;20026;-64
2021/12/13 09:20:23;;;;;;;29.63;14.93;;;;;;;;;;5015884;28;20026;-63
2021/12/13 09:22:54;;;;;;;29.27;16.33;;;;;;;;;;5015817;28;20427;-64
2021/12/13 09:25:32;;;;;;;39.90;18.80;;;;;;;;;;5016089;28;20014;-64
2021/12/13 09:28:10;;;;;;;37.70;19.45;;;;;;;;;;5015773;28;20391;-64
2021/12/13 09:30:39;;;;;;;35.25;19.20;;;;;;;;;;5016080;28;20395;-63
2021/12/13 09:33:08;;;;;;;39.83;19.60;;;;;;;;;;5015673;28;20101;-64
2021/12/13 09:35:53;;;;;;;34.60;18.33;;;;;;;;;;5016004;28;20022;-64
2021/12/13 09:38:30;;;;;;;41.25;19.30;;;;;;;;;;5016111;28;20030;-63
2021/12/13 09:40:59;;;;;;;28.58;15.07;;;;;;;;;;5015160;28;20064;-64
2021/12/13 09:43:35;;;;;;;30.33;15.75;;;;;;;;;;5015704;28;20457;-64
2021/12/13 09:46:02;;;;;;;22.58;12.55;;;;;;;;;;5015505;28;20484;-64
2021/12/13 09:48:32;;;;;;;30.50;14.07;;;;;;;;;;5014854;28;20440;-63
2021/12/13 09:51:00;;;;;;;31.50;16.45;;;;;;;;;;5015671;28;20105;-66
2021/12/13 09:53:31;;;;;;;26.15;14.55;;;;;;;;;;5015186;28;20030;-63
2021/12/13 09:55:58;;;;;;;31.33;15.48;;;;;;;;;;5015425;28;20456;-63
2021/12/13 09:58:28;;;;;;;32.13;16.13;;;;;;;;;;5015123;28;20032;-63
2021/12/13 10:00:57;;;;;;;30.80;14.90;;;;;;;;;;5014855;28;20018;-63
2021/12/13 10:03:30;;;;;;;24.10;13.25;;;;;;;;;;5015326;28;20033;-65
2021/12/13 10:05:59;;;;;;;19.45;10.48;;;;;;;;;;5014957;28;20187;-64
2021/12/13 10:08:37;;;;;;;23.05;11.50;;;;;;;;;;5014774;28;20028;-64
2021/12/13 10:11:11;;;;;;;19.30;10.45;;;;;;;;;;5014788;28;20384;-64
2021/12/13 10:13:39;;;;;;;18.27;11.02;;;;;;;;;;5015344;28;20022;-65
2021/12/13 10:16:10;;;;;;;18.63;10.40;;;;;;;;;;5014531;28;20495;-63
2021/12/13 10:18:37;;;;;;;20.85;12.18;;;;;;;;;;5015123;28;20075;-64
2021/12/13 10:21:15;;;;;;;21.77;12.60;;;;;;;;;;5014174;28;20026;-61
2021/12/13 10:23:45;;;;;;;23.98;13.32;;;;;;;;;;5014481;28;20472;-62
2021/12/13 10:26:13;;;;;;;32.70;17.45;;;;;;;;;;5014893;28;20038;-63
2021/12/13 10:28:42;;;;;;;38.78;20.52;;;;;;;;;;5014564;28;20032;-62
2021/12/13 10:31:08;;;;;;;48.40;25.95;;;;;;;;;;5014637;28;20014;-65
2021/12/13 10:33:35;;;;;;;50.97;25.67;;;;;;;;;;5014784;28;20021;-64
2021/12/13 10:36:02;;;;;;;51.90;27.85;;;;;;;;;;5014245;28;20493;-62
2021/12/13 10:38:33;;;;;;;60.03;25.90;;;;;;;;;;5014573;28;20053;-63
2021/12/13 10:40:59;;;;;;;;;;;;;;;;;;5015065;28;20105;-63
2021/12/13 10:43:28;;;;;;;38.03;19.75;;;;;;;;;;5014420;28;20010;-64
2021/12/13 10:45:57;;;;;;;38.67;20.77;;;;;;;;;;5014550;28;20112;-65
2021/12/13 10:48:26;;;;;;;42.35;21.90;;;;;;;;;;5014507;28;20041;-65
2021/12/13 10:50:59;;;;;;;42.28;21.25;;;;;;;;;;5014168;28;20033;-63
2021/12/13 10:53:26;;;;;;;34.95;18.00;;;;;;;;;;5013928;28;20472;-63
2021/12/13 10:55:54;;;;;;;46.90;23.25;;;;;;;;;;5014057;28;20100;-63
2021/12/13 10:58:57;;;;;;;55.83;27.80;;;;;;;;;;5013783;28;20036;-64
2021/12/13 11:01:29;;;;;;;54.15;26.75;;;;;;;;;;5014571;28;20033;-62
2021/12/13 11:03:56;;;;;;;53.75;27.15;;;;;;;;;;5013976;28;20384;-63
2021/12/13 11:06:23;;;;;;;42.75;21.77;;;;;;;;;;5014284;28;20022;-64
2021/12/13 11:08:51;;;;;;;33.67;17.10;;;;;;;;;;5014163;28;20066;-64
2021/12/13 11:11:22;;;;;;;28.30;16.88;;;;;;;;;;5013603;28;20100;-64
2021/12/13 11:13:53;;;;;;;42.63;18.85;;;;;;;;;;5014078;28;20376;-65
2021/12/13 11:16:22;;;;;;;65.70;26.38;;;;;;;;;;5014087;28;20034;-64
2021/12/13 11:18:49;;;;;;;36.13;18.73;;;;;;;;;;5013719;28;20018;-63
2021/12/13 11:21:26;;;;;;;47.08;25.45;;;;;;;;;;5014027;28;20022;-62
2021/12/13 11:23:52;;;;;;;39.70;19.63;;;;;;;;;;5014528;28;20030;-64
2021/12/13 11:26:21;;;;;;;33.58;18.58;;;;;;;;;;5013365;28;20032;-63
2021/12/13 11:28:47;;;;;;;35.92;17.08;;;;;;;;;;5014192;28;20018;-64
2021/12/13 11:31:40;;;;;;;30.30;17.38;;;;;;;;;;5013749;28;20068;-64
2021/12/13 11:34:25;;;;;;;40.38;19.85;;;;;;;;;;5014081;28;20357;-65
2021/12/13 11:37:07;;;;;;;37.58;19.83;;;;;;;;;;4996205;28;20049;-63
2021/12/13 11:39:41;;;;;;;36.63;19.77;;;;;;;;;;5013462;28;20473;-64
2021/12/13 11:42:26;;;;;;;36.72;20.27;;;;;;;;;;5014077;28;20030;-63
2021/12/13 11:45:10;;;;;;;37.85;19.73;;;;;;;;;;5013508;28;20491;-64
2021/12/13 11:47:55;;;;;;;38.63;19.45;;;;;;;;;;5004750;28;20108;-64
2021/12/13 11:50:40;;;;;;;38.47;19.45;;;;;;;;;;5013311;28;20372;-63
2021/12/13 11:53:15;;;;;;;36.58;18.63;;;;;;;;;;5013073;28;20108;-63
2021/12/13 11:56:00;;;;;;;33.47;18.38;;;;;;;;;;5013372;28;20057;-64
2021/12/13 11:58:35;;;;;;;31.73;16.67;;;;;;;;;;5013630;28;20060;-63
2021/12/13 12:01:04;;;;;;;33.72;16.60;;;;;;;;;;5013517;28;20092;-63
2021/12/13 12:03:49;;;;;;;27.75;16.15;;;;;;;;;;5013295;28;20022;-63
2021/12/13 12:06:48;;;;;;;25.17;14.10;;;;;;;;;;5013325;28;20038;-64
2021/12/13 12:09:24;;;;;;;29.52;16.70;;;;;;;;;;4981313;28;20487;-64
2021/12/13 12:12:09;;;;;;;30.08;15.05;;;;;;;;;;5013590;28;20054;-65
2021/12/13 12:14:35;;;;;;;31.38;14.27;;;;;;;;;;5013357;28;20053;-64
2021/12/13 12:17:03;;;;;;;24.42;13.13;;;;;;;;;;5013651;28;20030;-65
2021/12/13 12:19:34;;;;;;;28.75;14.02;;;;;;;;;;5013345;28;20476;-63
2021/12/13 12:22:06;;;;;;;29.27;13.32;;;;;;;;;;5013205;28;20026;-63
2021/12/13 12:24:35;;;;;;;17.85;10.63;;;;;;;;;;5013715;28;20056;-64
2021/12/13 12:27:06;;;;;;;22.40;12.45;;;;;;;;;;5013368;28;20029;-65
2021/12/13 12:29:35;;;;;;;24.40;12.13;;;;;;;;;;5013457;28;20029;-64
2021/12/13 12:32:03;;;;;;;18.85;10.63;;;;;;;;;;5013366;28;20024;-63
2021/12/13 12:34:30;;;;;;;19.98;10.90;;;;;;;;;;5013324;28;20026;-65
2021/12/13 12:36:59;;;;;;;19.33;10.40;;;;;;;;;;5013156;28;20113;-65
2021/12/13 12:39:28;;;;;;;23.38;11.73;;;;;;;;;;5013002;28;20026;-63
2021/12/13 12:42:17;;;;;;;22.80;12.18;;;;;;;;;;5013057;28;20030;-65
2021/12/13 12:44:52;;;;;;;33.33;15.98;;;;;;;;;;5015166;28;20499;-65
2021/12/13 12:47:18;;;;;;;38.67;17.65;;;;;;;;;;5016655;28;20060;-63
2021/12/13 12:49:44;;;;;;;34.53;18.63;;;;;;;;;;5016421;28;20025;-65
2021/12/13 12:52:10;;;;;;;37.00;18.88;;;;;;;;;;5016679;28;20014;-64
2021/12/13 12:54:37;;;;;;;40.90;23.13;;;;;;;;;;5016366;28;20037;-64
2021/12/13 12:57:04;;;;;;;55.30;24.90;;;;;;;;;;4998547;28;20030;-64
2021/12/13 12:59:33;;;;;;;42.70;22.27;;;;;;;;;;5016154;28;20022;-63
2021/12/13 13:02:05;;;;;;;42.00;22.92;;;;;;;;;;5016755;28;20372;-66
2021/12/13 13:04:40;;;;;;;44.92;23.52;;;;;;;;;;5016155;28;20021;-64
2021/12/13 13:07:14;;;;;;;42.63;21.20;;;;;;;;;;5016379;28;20026;-66
2021/12/13 13:09:47;;;;;;;39.05;19.33;;;;;;;;;;5016180;28;20026;-62
2021/12/13 13:12:16;;;;;;;32.28;16.98;;;;;;;;;;5016227;28;20026;-64
2021/12/13 13:14:44;;;;;;;32.08;16.50;;;;;;;;;;5015902;28;20022;-65
2021/12/13 13:17:10;;;;;;;33.50;17.70;;;;;;;;;;5015839;28;20026;-62
2021/12/13 13:19:40;;;;;;;28.33;15.05;;;;;;;;;;5016277;28;20025;-63
2021/12/13 13:22:08;;;;;;;33.33;15.60;;;;;;;;;;5015789;28;20395;-64
2021/12/13 13:24:44;;;;;;;25.50;14.05;;;;;;;;;;5015614;28;20021;-62
2021/12/13 13:27:11;;;;;;;24.40;13.63;;;;;;;;;;5016132;28;20095;-63
2021/12/13 13:29:37;;;;;;;30.30;14.75;;;;;;;;;;5016283;28;20101;-64
2021/12/13 13:32:05;;;;;;;31.42;15.23;;;;;;;;;;5015634;28;20101;-64
2021/12/13 13:34:38;;;;;;;32.72;15.52;;;;;;;;;;4998309;28;20030;-65
2021/12/13 13:37:15;;;;;;;33.03;16.65;;;;;;;;;;5015752;28;20072;-62
2021/12/13 13:39:45;;;;;;;34.67;16.52;;;;;;;;;;5015778;28;20456;-63
2021/12/13 13:42:21;;;;;;;28.75;15.82;;;;;;;;;;5015378;28;20037;-66
2021/12/13 13:44:52;;;;;;;29.60;14.90;;;;;;;;;;5015004;28;20014;-63
2021/12/13 13:47:24;;;;;;;29.25;16.27;;;;;;;;;;5015562;28;20041;-63
2021/12/13 13:49:50;;;;;;;33.53;17.00;;;;;;;;;;5015235;28;20511;-66
2021/12/13 13:52:25;;;;;;;37.72;19.23;;;;;;;;;;5015068;28;20032;-64
2021/12/13 13:54:55;;;;;;;35.35;18.63;;;;;;;;;;5015531;28;20072;-63
2021/12/13 13:57:23;;;;;;;106.20;41.10;;;;;;;;;;5015330;28;20037;-63
2021/12/13 13:59:50;;;;;;;38.67;19.90;;;;;;;;;;5015134;28;20018;-64
2021/12/13 14:02:19;;;;;;;65.70;28.92;;;;;;;;;;5015639;28;20615;-65
2021/12/13 14:04:50;;;;;;;45.45;21.67;;;;;;;;;;5015461;28;20057;-64
2021/12/13 14:07:18;;;;;;;50.17;22.38;;;;;;;;;;5014692;28;20438;-65
2021/12/13 14:09:52;;;;;;;46.17;22.23;;;;;;;;;;5014845;28;20024;-65
2021/12/13 14:12:32;;;;;;;45.47;20.02;;;;;;;;;;5015206;28;20025;-63
2021/12/13 14:15:11;;;;;;;41.13;18.95;;;;;;;;;;5014763;28;20029;-65
2021/12/13 14:17:50;;;;;;;38.75;20.33;;;;;;;;;;5015192;28;20088;-64
2021/12/13 14:20:22;;;;;;;38.88;19.25;;;;;;;;;;5014381;28;20025;-63
2021/12/13 14:22:50;;;;;;;34.00;18.65;;;;;;;;;;4998262;28;20439;-65
2021/12/13 14:25:30;;;;;;;39.03;20.63;;;;;;;;;;5013998;28;20392;-65
2021/12/13 14:27:56;;;;;;;37.35;18.77;;;;;;;;;;5014425;28;20499;-64
2021/12/13 14:30:29;;;;;;;36.92;17.38;;;;;;;;;;5014380;28;20511;-65
2021/12/13 14:32:55;;;;;;;39.35;18.42;;;;;;;;;;5014490;28;20021;-63
2021/12/13 14:35:25;;;;;;;39.80;19.80;;;;;;;;;;5014159;28;20518;-66
2021/12/13 14:37:57;;;;;;;36.03;18.63;;;;;;;;;;5023532;28;20034;-65
2021/12/13 14:40:23;;;;;;;30.80;15.57;;;;;;;;;;5022621;28;20030;-64
2021/12/13 14:43:08;;;;;;;30.23;16.75;;;;;;;;;;4999879;28;20511;-65
2021/12/13 14:45:45;;;;;;;26.55;14.43;;;;;;;;;;4994085;28;20026;-65
2021/12/13 14:48:16;;;;;;;28.63;14.60;;;;;;;;;;5004335;28;20399;-69
2021/12/13 14:50:47;;;;;;;30.90;15.88;;;;;;;;;;5002631;28;20030;-63
2021/12/13 14:53:20;;;;;;;34.58;17.55;;;;;;;;;;4994944;28;20028;-64
2021/12/13 14:55:48;;;;;;;32.05;16.77;;;;;;;;;;5000395;28;20042;-64
2021/12/13 14:58:19;;;;;;;32.35;17.55;;;;;;;;;;5003927;28;20026;-64
2021/12/13 15:00:59;;;;;;;;;;;;;;;;;;5003867;28;20060;-65
2021/12/13 15:03:34;;;;;;;39.30;19.30;;;;;;;;;;5003694;28;19937;-65